Time;durP1;ratioP1;P1;durP2;ratioP2;P2;SDS_P1;SDS_P2;PMS_P1;PMS_P2;Temp;Humidity;BMP_temperature;BMP_pressure;BME280_temperature;BME280_humidity;BME280_pressure;Samples;Min_cycle;Max_cycle;Signal;HPM_P1;HPM_P2
2022/04/12 00:00:12;;;;;;;5.80;4.75;;;;;;;6.05;45.28;95422.66;4993342;28;20386;-77
2022/04/12 00:02:38;;;;;;;6.65;5.13;;;;;;;6.09;44.79;95420.47;4992028;28;20417;-77
2022/04/12 00:05:04;;;;;;;10.38;5.20;;;;;;;6.09;44.90;95425.66;5010656;28;20022;-77
2022/04/12 00:07:29;;;;;;;7.53;4.30;;;;;;;6.09;44.82;95408.38;5010963;28;20052;-77
2022/04/12 00:09:55;;;;;;;6.68;4.65;;;;;;;6.14;45.25;95415.53;5009342;28;20041;-77
2022/04/12 00:12:20;;;;;;;12.15;5.82;;;;;;;6.09;44.79;95418.69;5009617;28;20389;-77
2022/04/12 00:14:45;;;;;;;13.18;6.20;;;;;;;6.12;44.43;95412.34;4991454;28;20480;-77
2022/04/12 00:19:56;;;;;;;19.35;7.03;;;;;;;6.04;45.15;95412.50;5010888;28;20571;-77
2022/04/12 00:22:21;;;;;;;10.13;4.82;;;;;;;6.06;45.72;95418.28;5009105;28;20172;-77
2022/04/12 00:24:46;;;;;;;9.65;4.53;;;;;;;5.99;45.90;95413.06;5008639;28;20872;-77
2022/04/12 00:27:12;;;;;;;9.32;4.80;;;;;;;5.97;46.35;95408.09;4991618;28;20566;-77
2022/04/12 00:29:37;;;;;;;9.02;4.57;;;;;;;5.92;45.54;95412.22;5008872;28;20038;-77
2022/04/12 00:32:03;;;;;;;8.38;4.70;;;;;;;5.83;46.20;95408.13;5008984;28;20038;-77
2022/04/12 00:34:28;;;;;;;5.97;4.18;;;;;;;5.78;47.16;95395.81;5008860;28;20737;-78
2022/04/12 00:36:54;;;;;;;6.10;4.60;;;;;;;5.75;47.01;95395.41;5010303;28;20428;-77
2022/04/12 00:39:19;;;;;;;13.77;4.53;;;;;;;5.68;46.93;95392.75;5000347;28;20415;-77
2022/04/12 00:41:45;;;;;;;14.40;6.45;;;;;;;5.63;47.90;95389.94;5008911;28;20473;-77
2022/04/12 00:44:10;;;;;;;6.65;4.82;;;;;;;5.61;47.81;95395.28;4992143;28;20034;-77
2022/04/12 00:46:36;;;;;;;8.85;5.57;;;;;;;5.58;48.54;95394.88;5008807;28;20037;-77
2022/04/12 00:49:01;;;;;;;8.57;5.72;;;;;;;5.45;47.69;95392.97;4992051;28;20034;-77
2022/04/12 00:51:27;;;;;;;6.15;4.88;;;;;;;5.50;47.25;95394.97;4992214;28;20048;-77
2022/04/12 00:53:53;;;;;;;7.80;5.70;;;;;;;5.47;47.72;95388.41;5008143;28;20624;-77
2022/04/12 00:56:18;;;;;;;6.60;5.57;;;;;;;5.46;47.22;95391.97;5009208;28;20048;-77
2022/04/12 00:58:46;;;;;;;8.25;6.90;;;;;;;5.46;46.86;95391.19;5010025;28;20034;-77
2022/04/12 01:01:12;;;;;;;9.70;6.00;;;;;;;5.48;47.10;95390.00;5008728;28;20526;-76
2022/04/12 01:03:37;;;;;;;12.85;6.60;;;;;;;5.42;47.25;95386.41;5008408;28;20112;-77
2022/04/12 01:06:03;;;;;;;10.30;5.40;;;;;;;5.43;47.45;95388.00;5010269;28;20026;-77
2022/04/12 01:08:28;;;;;;;14.73;7.13;;;;;;;5.37;47.82;95393.09;5009284;28;20153;-77
2022/04/12 01:10:54;;;;;;;11.23;6.90;;;;;;;5.39;48.35;95386.78;5009121;28;20039;-76
2022/04/12 01:13:19;;;;;;;13.80;7.55;;;;;;;5.36;48.83;95396.66;5009438;28;20042;-77
2022/04/12 01:15:44;;;;;;;10.30;5.72;;;;;;;5.29;49.26;95388.84;5009391;28;20056;-77
2022/04/12 01:18:10;;;;;;;11.65;6.53;;;;;;;5.21;48.90;95389.00;5008574;28;20038;-76
2022/04/12 01:20:35;;;;;;;6.22;4.97;;;;;;;5.15;48.61;95389.72;5009638;28;20529;-76
2022/04/12 01:23:10;;;;;;;7.30;4.70;;;;;;;5.09;48.83;95393.84;5009897;28;20030;-76
2022/04/12 01:25:37;;;;;;;10.45;4.90;;;;;;;5.12;48.52;95390.88;5023414;28;20096;-76
2022/04/12 01:28:02;;;;;;;7.10;6.03;;;;;;;5.13;48.31;95387.31;5009365;28;20081;-77
2022/04/12 01:30:28;;;;;;;8.88;6.13;;;;;;;5.15;49.16;95379.41;5009317;28;20493;-77
2022/04/12 01:32:53;;;;;;;8.02;6.65;;;;;;;5.18;47.61;95381.59;5009418;28;20042;-76
2022/04/12 01:35:19;;;;;;;6.30;5.70;;;;;;;5.20;47.24;95382.22;4992369;28;20034;-78
2022/04/12 01:37:45;;;;;;;10.75;5.90;;;;;;;5.23;48.23;95376.72;5009786;28;20053;-77
2022/04/12 01:40:10;;;;;;;16.23;7.47;;;;;;;5.20;48.14;95395.09;5012886;28;20045;-77
2022/04/12 01:42:39;;;;;;;13.15;9.10;;;;;;;5.11;48.55;95388.50;4995559;28;20489;-77
2022/04/12 01:45:05;;;;;;;14.52;8.60;;;;;;;5.05;49.40;95384.09;5011912;28;20113;-77
2022/04/12 01:47:31;;;;;;;12.65;7.70;;;;;;;4.99;49.51;95380.44;5011340;28;20045;-77
2022/04/12 01:49:56;;;;;;;11.23;7.43;;;;;;;4.98;49.11;95383.19;5012361;28;20493;-77
2022/04/12 01:52:22;;;;;;;13.77;8.80;;;;;;;4.88;49.93;95387.84;5011571;28;20477;-77
2022/04/12 01:54:48;;;;;;;21.42;9.43;;;;;;;4.83;49.86;95381.47;4994856;28;20504;-77
2022/04/12 01:57:13;;;;;;;15.77;8.98;;;;;;;4.85;49.69;95383.06;4994922;28;20038;-77
2022/04/12 01:59:39;;;;;;;21.33;10.07;;;;;;;4.75;50.25;95384.16;5011514;28;20029;-77
2022/04/12 02:02:04;;;;;;;27.13;12.07;;;;;;;4.74;50.46;95387.72;4994817;28;20088;-77
2022/04/12 02:04:30;;;;;;;43.85;13.38;;;;;;;4.66;51.16;95384.44;4994889;28;20102;-77
2022/04/12 02:06:55;;;;;;;31.98;11.55;;;;;;;4.62;51.15;95378.84;4994874;28;20044;-77
2022/04/12 02:09:21;;;;;;;31.23;9.88;;;;;;;4.63;50.45;95375.28;4994927;28;20033;-77
2022/04/12 02:11:46;;;;;;;22.58;8.85;;;;;;;4.68;49.97;95377.31;5011045;28;20362;-77
2022/04/12 02:14:12;;;;;;;16.77;8.50;;;;;;;4.69;50.21;95373.75;5010799;28;20971;-76
2022/04/12 02:16:37;;;;;;;21.23;10.20;;;;;;;4.69;50.11;95376.34;5011279;28;20122;-77
2022/04/12 02:19:03;;;;;;;24.08;10.90;;;;;;;4.69;50.44;95374.56;5011969;28;20043;-77
2022/04/12 02:21:28;;;;;;;19.67;8.85;;;;;;;4.68;50.57;95367.81;5012106;28;20033;-76
2022/04/12 02:23:54;;;;;;;22.50;9.40;;;;;;;4.63;50.71;95365.00;5012021;28;20034;-76
2022/04/12 02:26:19;;;;;;;16.33;8.88;;;;;;;4.55;50.63;95370.22;5010647;28;20508;-76
2022/04/12 02:28:44;;;;;;;18.17;7.75;;;;;;;4.52;51.38;95370.59;5011989;28;20041;-76
2022/04/12 02:31:10;;;;;;;17.75;6.95;;;;;;;4.48;50.63;95370.16;5010529;28;20034;-76
2022/04/12 02:33:35;;;;;;;12.30;5.88;;;;;;;4.45;50.66;95373.09;5011856;28;20026;-76
2022/04/12 02:36:01;;;;;;;11.02;5.20;;;;;;;4.42;51.07;95367.53;5010687;28;20104;-76
2022/04/12 02:38:26;;;;;;;14.80;5.97;;;;;;;4.36;51.47;95378.53;4994331;28;20474;-76
2022/04/12 02:40:52;;;;;;;8.05;4.88;;;;;;;4.27;52.16;95369.31;5011755;28;20057;-76
2022/04/12 02:43:17;;;;;;;19.50;6.05;;;;;;;4.22;52.09;95383.50;5010392;28;20052;-77
2022/04/12 02:45:42;;;;;;;10.00;5.47;;;;;;;4.24;52.61;95379.97;4993249;28;20026;-76
2022/04/12 02:48:09;;;;;;;13.55;5.90;;;;;;;4.15;52.43;95374.09;5010603;28;20655;-77
2022/04/12 02:50:35;;;;;;;8.07;4.93;;;;;;;4.15;52.44;95379.25;5009006;28;20034;-77
2022/04/12 02:53:00;;;;;;;14.63;5.63;;;;;;;4.17;51.59;95382.44;5001768;28;20045;-77
2022/04/12 02:55:25;;;;;;;7.72;6.15;;;;;;;4.16;52.06;95379.06;5011428;28;20033;-76
2022/04/12 02:57:51;;;;;;;11.30;6.13;;;;;;;4.11;51.96;95376.25;5011362;28;20030;-77
2022/04/12 03:00:17;;;;;;;21.40;7.55;;;;;;;4.18;51.84;95381.47;5009724;28;20038;-77
2022/04/12 03:02:42;;;;;;;8.50;5.95;;;;;;;4.21;52.62;95381.91;5011173;28;20041;-76
2022/04/12 03:05:08;;;;;;;9.75;6.15;;;;;;;4.25;52.30;95381.56;5011722;28;20041;-76
2022/04/12 03:07:33;;;;;;;8.73;5.65;;;;;;;4.28;51.83;95378.63;5011286;28;20029;-77
2022/04/12 03:09:59;;;;;;;9.90;6.90;;;;;;;4.26;52.29;95376.25;5009905;28;20026;-77
2022/04/12 03:12:24;;;;;;;20.80;6.97;;;;;;;4.30;52.73;95384.41;4993624;28;20046;-76
2022/04/12 03:14:49;;;;;;;51.17;8.27;;;;;;;4.22;52.92;95378.34;5009603;28;20121;-76
2022/04/12 03:17:15;;;;;;;13.27;6.10;;;;;;;4.19;52.39;95371.00;5008881;28;20551;-76
2022/04/12 03:19:40;;;;;;;33.17;10.15;;;;;;;4.19;52.66;95378.72;5010788;28;20060;-76
2022/04/12 03:22:06;;;;;;;27.95;11.10;;;;;;;4.23;53.24;95376.59;5011214;28;20037;-76
2022/04/12 03:24:31;;;;;;;18.58;6.45;;;;;;;4.22;52.33;95380.94;5010865;28;20034;-75
2022/04/12 03:26:57;;;;;;;15.65;5.72;;;;;;;4.20;52.21;95380.31;4993506;28;20029;-76
2022/04/12 03:29:23;;;;;;;6.40;5.78;;;;;;;4.18;52.31;95381.47;5009799;28;20112;-76
2022/04/12 03:31:48;;;;;;;7.10;5.30;;;;;;;4.17;51.63;95385.81;5010246;28;20033;-76
2022/04/12 03:34:13;;;;;;;15.40;6.00;;;;;;;4.15;51.48;95397.28;5010491;28;20493;-76
2022/04/12 03:36:39;;;;;;;14.45;6.32;;;;;;;4.16;51.32;95391.94;5010827;28;20042;-75
2022/04/12 03:39:04;;;;;;;19.02;7.18;;;;;;;4.14;51.24;95396.47;5009594;28;20030;-75
2022/04/12 03:41:30;;;;;;;24.50;9.02;;;;;;;4.18;52.13;95397.72;5010741;28;20049;-76
2022/04/12 03:43:55;;;;;;;10.88;7.18;;;;;;;4.19;51.30;95398.50;5009432;28;20384;-76
2022/04/12 03:46:21;;;;;;;13.18;8.65;;;;;;;4.18;51.89;95395.13;5009433;28;20034;-76
2022/04/12 03:48:46;;;;;;;17.80;8.77;;;;;;;4.22;51.47;95393.78;5009274;28;20072;-76
2022/04/12 03:51:12;;;;;;;18.60;9.02;;;;;;;4.22;51.59;95393.00;5009202;28;20076;-76
2022/04/12 03:53:37;;;;;;;24.92;9.95;;;;;;;4.24;51.92;95390.28;4992751;28;20045;-76
2022/04/12 03:56:09;;;;;;;23.40;9.38;;;;;;;4.22;52.26;95393.78;4993466;28;20044;-76
2022/04/12 03:58:35;;;;;;;16.63;10.25;;;;;;;4.22;51.83;95393.00;5009119;28;20088;-76
2022/04/12 04:01:02;;;;;;;54.08;28.42;;;;;;;4.25;52.54;95397.00;5008883;28;20030;-77
2022/04/12 04:03:27;;;;;;;58.22;29.67;;;;;;;4.29;52.49;95401.63;5010302;28;20033;-77
2022/04/12 04:05:53;;;;;;;47.55;25.02;;;;;;;4.50;52.63;95404.25;5010558;28;20050;-77
2022/04/12 04:08:24;;;;;;;58.97;32.90;;;;;;;4.60;52.55;95398.84;4991815;28;20177;-77
2022/04/12 04:10:50;;;;;;;54.58;28.75;;;;;;;4.76;52.19;95406.38;5009582;28;20072;-77
2022/04/12 04:13:17;;;;;;;62.65;30.95;;;;;;;4.97;52.01;95402.22;5010434;28;20489;-74
2022/04/12 04:15:42;;;;;;;82.72;34.45;;;;;;;5.36;51.44;95407.75;5010303;28;20109;-75
2022/04/12 04:18:08;;;;;;;70.28;33.58;;;;;;;5.83;49.89;95401.19;4992658;28;20133;-75
2022/04/12 04:20:33;;;;;;;78.82;36.50;;;;;;;6.19;48.85;95402.88;4992608;28;20038;-75
2022/04/12 04:22:59;;;;;;;84.70;40.95;;;;;;;6.38;48.24;95409.94;4993316;28;20140;-76
2022/04/12 04:25:27;;;;;;;124.85;55.08;;;;;;;7.18;46.62;95404.06;5010053;28;20046;-75
2022/04/12 04:27:53;;;;;;;222.50;102.53;;;;;;;8.37;43.92;95405.88;4992224;28;20552;-76
2022/04/12 04:30:19;;;;;;;190.13;84.57;;;;;;;9.81;40.08;95405.34;5009927;28;20037;-75
2022/04/12 04:32:45;;;;;;;91.72;40.65;;;;;;;11.27;36.53;95402.00;5008699;28;20053;-75
2022/04/12 04:35:13;;;;;;;67.50;32.50;;;;;;;12.83;33.35;95408.47;5008876;28;20418;-81
2022/04/12 04:37:47;;;;;;;69.60;30.48;;;;;;;14.33;30.62;95409.78;4991859;28;20462;-76
2022/04/12 04:40:17;;;;;;;57.67;23.10;;;;;;;15.77;28.82;95405.94;5007984;28;20121;-76
2022/04/12 04:42:44;;;;;;;26.42;14.10;;;;;;;16.93;26.42;95405.16;5009133;28;20470;-76
2022/04/12 04:45:13;;;;;;;17.90;8.38;;;;;;;17.89;25.39;95410.66;4992443;28;20033;-78
2022/04/12 04:47:52;;;;;;;35.80;9.50;;;;;;;19.12;23.38;95417.31;5008412;28;20068;-77
2022/04/12 04:50:18;;;;;;;24.10;8.05;;;;;;;20.14;21.83;95416.69;4992332;28;20053;-78
2022/04/12 04:52:44;;;;;;;25.13;9.43;;;;;;;21.21;20.96;95418.28;4991877;28;20111;-76
2022/04/12 04:55:09;;;;;;;31.05;8.75;;;;;;;22.21;20.46;95413.72;5009596;28;20034;-77
2022/04/12 04:57:41;;;;;;;22.83;9.00;;;;;;;23.07;18.87;95414.81;5009739;28;20489;-77
2022/04/12 05:00:08;;;;;;;24.30;9.00;;;;;;;23.80;17.92;95421.03;4999541;28;20049;-77
2022/04/12 05:02:34;;;;;;;17.33;8.48;;;;;;;24.88;17.64;95410.09;5007149;28;20042;-78
2022/04/12 05:05:00;;;;;;;14.15;8.27;;;;;;;25.63;16.04;95409.06;5008026;28;20038;-77
2022/04/12 05:07:26;;;;;;;17.65;9.15;;;;;;;25.97;15.84;95410.97;4992225;28;20032;-77
2022/04/12 05:09:52;;;;;;;25.45;9.60;;;;;;;26.58;15.44;95406.34;5024871;28;20125;-77
2022/04/12 05:12:18;;;;;;;19.80;8.55;;;;;;;27.20;14.65;95407.69;4992090;28;20046;-77
2022/04/12 05:14:43;;;;;;;15.13;7.43;;;;;;;27.92;14.65;95417.28;5007151;28;20421;-78
2022/04/12 05:17:08;;;;;;;24.67;8.20;;;;;;;28.59;14.30;95404.69;5008177;28;20540;-77
2022/04/12 05:19:34;;;;;;;24.85;8.05;;;;;;;29.27;13.86;95405.75;5007277;28;20623;-77
2022/04/12 05:21:59;;;;;;;23.48;7.93;;;;;;;30.06;13.67;95402.72;5007988;28;20458;-77
2022/04/12 05:24:25;;;;;;;34.58;8.43;;;;;;;30.74;12.73;95410.69;4991745;28;20033;-77
2022/04/12 05:26:50;;;;;;;32.92;7.53;;;;;;;31.13;12.59;95405.47;5009820;28;20026;-77
2022/04/12 05:29:16;;;;;;;19.15;6.72;;;;;;;31.75;11.42;95407.31;5008963;28;20037;-77
2022/04/12 05:31:41;;;;;;;32.13;6.07;;;;;;;32.22;11.48;95401.72;5009149;28;20412;-76
2022/04/12 05:34:07;;;;;;;31.58;7.43;;;;;;;32.55;10.98;95408.50;5007922;28;20611;-77
2022/04/12 05:36:32;;;;;;;23.90;8.82;;;;;;;32.84;10.40;95407.84;5007516;28;20030;-77
2022/04/12 05:38:58;;;;;;;29.30;10.55;;;;;;;33.13;10.34;95402.91;4991378;28;20026;-77
2022/04/12 05:41:23;;;;;;;33.92;9.77;;;;;;;33.33;10.65;95401.69;5009264;28;20481;-77
2022/04/12 05:43:49;;;;;;;36.83;11.35;;;;;;;33.53;9.72;95393.53;4991124;28;20049;-75
2022/04/12 05:46:14;;;;;;;29.83;11.60;;;;;;;33.37;10.09;95396.38;4991791;28;20029;-78
2022/04/12 05:48:40;;;;;;;34.88;12.10;;;;;;;33.35;9.83;95394.03;5008178;28;20492;-78
2022/04/12 05:51:05;;;;;;;34.15;11.68;;;;;;;32.93;10.02;95394.16;5008945;28;20041;-78
2022/04/12 05:53:31;;;;;;;27.00;10.18;;;;;;;32.54;10.25;95390.75;5007338;28;20041;-77
2022/04/12 05:55:56;;;;;;;17.05;9.15;;;;;;;31.51;11.06;95389.47;5008965;28;20092;-77
2022/04/12 05:58:22;;;;;;;25.50;8.98;;;;;;;30.53;11.26;95396.69;4991151;28;20401;-77
2022/04/12 06:00:47;;;;;;;29.95;8.77;;;;;;;29.24;12.27;95400.31;5008476;28;20042;-77
2022/04/12 06:03:13;;;;;;;20.40;8.48;;;;;;;28.14;13.09;95407.31;5008695;28;20092;-77
2022/04/12 06:05:38;;;;;;;30.65;9.02;;;;;;;26.69;14.05;95409.47;5007096;28;20034;-77
2022/04/12 06:08:04;;;;;;;23.80;8.75;;;;;;;25.26;15.06;95417.63;5008900;28;20038;-77
2022/04/12 06:10:29;;;;;;;22.90;9.00;;;;;;;24.23;16.28;95419.44;5007711;28;20070;-77
2022/04/12 06:12:54;;;;;;;24.85;9.23;;;;;;;23.01;17.42;95416.00;5007422;28;20508;-77
2022/04/12 06:15:20;;;;;;;16.95;9.45;;;;;;;22.60;17.90;95416.72;4991090;28;20034;-77
2022/04/12 06:17:46;;;;;;;18.67;9.30;;;;;;;22.16;18.11;95418.03;5008714;28;20096;-77
2022/04/12 06:20:15;;;;;;;33.80;9.88;;;;;;;21.32;19.37;95419.75;5008547;28;20068;-77
2022/04/12 06:22:41;;;;;;;28.00;10.00;;;;;;;20.66;20.33;95428.41;4990742;28;20038;-76
2022/04/12 06:25:08;;;;;;;20.48;8.88;;;;;;;20.26;20.75;95435.59;4990838;28;20524;-76
2022/04/12 06:27:36;;;;;;;16.38;8.48;;;;;;;18.97;21.71;95430.53;4994507;28;20033;-76
2022/04/12 06:30:11;;;;;;;14.63;8.15;;;;;;;18.66;22.55;95437.75;5011108;28;20540;-76
2022/04/12 06:32:37;;;;;;;39.33;8.10;;;;;;;18.09;23.05;95428.31;5026616;28;20485;-76
2022/04/12 06:35:03;;;;;;;16.85;8.40;;;;;;;17.56;24.14;95437.41;4993940;28;20030;-76
2022/04/12 06:37:28;;;;;;;24.25;8.57;;;;;;;17.13;24.79;95433.34;5012089;28;20084;-77
2022/04/12 06:39:56;;;;;;;16.73;8.10;;;;;;;16.90;25.22;95439.81;4994743;28;20076;-76
2022/04/12 06:42:21;;;;;;;16.92;8.05;;;;;;;16.64;25.79;95437.03;5009456;28;20507;-76
2022/04/12 06:44:46;;;;;;;27.77;8.68;;;;;;;16.27;26.47;95444.13;4993510;28;20038;-76
2022/04/12 06:47:15;;;;;;;19.33;8.07;;;;;;;16.44;26.78;95440.34;5010200;28;20034;-76
2022/04/12 06:49:58;;;;;;;16.20;7.95;;;;;;;16.75;26.28;95433.44;5010062;28;20119;-77
2022/04/12 06:52:24;;;;;;;17.70;8.27;;;;;;;16.93;25.93;95434.06;5011422;28;20034;-77
2022/04/12 06:54:49;;;;;;;16.52;7.60;;;;;;;16.91;25.89;95430.88;5011252;28;20030;-75
2022/04/12 06:57:15;;;;;;;15.43;7.68;;;;;;;16.90;25.94;95434.56;5013273;28;20088;-76
2022/04/12 06:59:43;;;;;;;21.05;8.25;;;;;;;16.92;25.87;95438.53;4993790;28;20474;-76
2022/04/12 07:02:09;;;;;;;23.75;8.88;;;;;;;16.81;26.29;95431.63;4993811;28;20037;-76
2022/04/12 07:04:34;;;;;;;22.08;7.78;;;;;;;16.78;26.01;95426.91;5012223;28;20040;-76
2022/04/12 07:07:00;;;;;;;20.65;7.78;;;;;;;16.84;26.27;95433.75;5014452;28;20030;-79
2022/04/12 07:09:27;;;;;;;17.98;6.85;;;;;;;16.77;26.07;95428.75;4993779;28;20103;-77
2022/04/12 07:11:59;;;;;;;9.10;6.75;;;;;;;16.91;26.61;95425.63;4993693;28;20466;-77
2022/04/12 07:14:25;;;;;;;17.17;6.35;;;;;;;17.05;26.20;95426.75;5011950;28;20060;-77
2022/04/12 07:16:50;;;;;;;16.98;6.70;;;;;;;16.83;25.78;95413.78;5012733;28;20470;-78
2022/04/12 07:19:16;;;;;;;13.10;6.30;;;;;;;16.65;26.79;95417.59;5012026;28;20389;-77
2022/04/12 07:21:42;;;;;;;10.93;6.03;;;;;;;16.74;25.37;95418.72;4993597;28;20059;-77
2022/04/12 07:24:08;;;;;;;21.40;6.07;;;;;;;16.80;25.14;95422.19;5008106;28;20580;-77
2022/04/12 07:26:34;;;;;;;6.15;4.20;;;;;;;16.68;24.48;95427.63;4992776;28;20061;-77
2022/04/12 07:28:59;;;;;;;7.72;4.32;;;;;;;16.63;23.80;95424.94;5008728;28;20579;-77
2022/04/12 07:31:25;;;;;;;4.63;3.63;;;;;;;16.61;23.43;95426.25;4993454;28;20038;-77
2022/04/12 07:33:51;;;;;;;10.90;3.67;;;;;;;16.46;22.74;95427.75;4992276;28;20362;-77
2022/04/12 07:36:16;;;;;;;12.60;3.45;;;;;;;16.33;22.92;95430.00;4992326;28;20120;-77
2022/04/12 07:38:42;;;;;;;17.05;6.90;;;;;;;16.15;22.64;95428.56;5007519;28;20038;-77
2022/04/12 07:41:08;;;;;;;18.17;8.70;;;;;;;16.13;22.96;95420.16;5009457;28;20057;-77
2022/04/12 07:43:34;;;;;;;4.05;3.40;;;;;;;16.02;22.21;95427.16;4992730;28;20034;-76
2022/04/12 07:45:59;;;;;;;4.47;2.88;;;;;;;15.74;22.40;95417.72;5010538;28;20042;-77
2022/04/12 07:48:25;;;;;;;4.25;3.00;;;;;;;15.43;23.73;95421.88;4993144;28;20034;-77
2022/04/12 07:50:50;;;;;;;7.50;3.50;;;;;;;15.54;23.55;95426.19;5012773;28;20041;-80
2022/04/12 07:53:16;;;;;;;11.45;3.40;;;;;;;15.66;23.28;95420.03;5007091;28;20052;-80
2022/04/12 07:55:41;;;;;;;8.88;5.28;;;;;;;15.61;23.60;95418.91;5016504;28;20444;-79
2022/04/12 07:58:07;;;;;;;4.00;3.22;;;;;;;15.51;23.45;95413.56;4983685;28;20038;-80
2022/04/12 08:00:32;;;;;;;8.05;3.33;;;;;;;15.43;24.28;95415.84;5017989;28;20065;-79
2022/04/12 08:02:58;;;;;;;7.47;3.55;;;;;;;15.48;24.65;95414.06;5018013;28;20053;-79
2022/04/12 08:05:23;;;;;;;11.18;2.53;;;;;;;15.47;23.58;95411.69;5016788;28;20064;-80
2022/04/12 08:07:49;;;;;;;8.95;4.15;;;;;;;15.44;24.38;95407.72;5018976;28;20026;-80
2022/04/12 08:10:15;;;;;;;6.28;3.63;;;;;;;15.38;23.90;95407.94;5047417;23;20054;-79
2022/04/12 08:12:41;;;;;;;6.30;4.25;;;;;;;15.32;23.73;95412.34;5015957;28;20052;-80
2022/04/12 08:15:08;;;;;;;4.07;2.97;;;;;;;15.19;23.44;95404.84;5015229;28;20030;-82
2022/04/12 08:17:33;;;;;;;5.70;3.55;;;;;;;15.18;24.20;95401.44;5000614;28;20056;-80
2022/04/12 08:19:59;;;;;;;2.78;2.42;;;;;;;15.03;23.60;95396.03;5017141;28;20405;-79
2022/04/12 08:22:25;;;;;;;9.25;3.58;;;;;;;14.95;23.89;95386.75;5015738;28;20029;-80
2022/04/12 08:24:50;;;;;;;2.70;2.35;;;;;;;14.93;24.22;95391.47;4999726;28;20037;-80
2022/04/12 08:27:16;;;;;;;14.90;3.17;;;;;;;14.82;23.79;95405.47;5021869;28;20041;-80
2022/04/12 08:29:41;;;;;;;5.57;4.03;;;;;;;14.74;24.08;95398.03;5016453;28;20026;-80
2022/04/12 08:32:07;;;;;;;4.38;2.92;;;;;;;14.63;23.78;95396.31;5016168;28;20038;-80
2022/04/12 08:34:33;;;;;;;6.72;3.15;;;;;;;14.54;23.93;95388.09;4999942;28;20030;-79
2022/04/12 08:36:58;;;;;;;3.88;2.53;;;;;;;14.58;23.80;95394.44;5002126;28;20052;-79
2022/04/12 08:39:24;;;;;;;13.32;5.05;;;;;;;14.69;23.97;95395.38;5000877;28;20030;-81
2022/04/12 08:41:50;;;;;;;13.38;4.40;;;;;;;14.72;24.44;95394.88;5016428;28;20038;-80
2022/04/12 08:44:17;;;;;;;6.35;3.50;;;;;;;14.74;24.20;95392.00;5016473;28;20034;-80
2022/04/12 08:46:43;;;;;;;3.30;3.00;;;;;;;14.77;24.11;95394.13;5018074;28;20041;-79
2022/04/12 08:49:08;;;;;;;10.77;2.85;;;;;;;14.86;24.77;95390.06;5018361;28;20040;-80
2022/04/12 08:51:34;;;;;;;14.65;4.95;;;;;;;14.71;24.38;95369.75;5000825;28;20034;-80
2022/04/12 08:53:59;;;;;;;15.30;5.97;;;;;;;14.54;24.66;95384.69;5001514;28;20040;-80
2022/04/12 08:56:26;;;;;;;3.55;3.20;;;;;;;14.42;25.80;95377.72;5001310;28;20046;-80
2022/04/12 08:58:51;;;;;;;7.88;3.47;;;;;;;14.41;25.65;95373.50;5017746;28;20084;-80
2022/04/12 09:01:17;;;;;;;4.75;3.00;;;;;;;14.41;25.76;95370.91;5017454;28;20030;-80
2022/04/12 09:03:43;;;;;;;5.53;3.20;;;;;;;14.42;25.78;95364.63;5007876;28;20034;-81
2022/04/12 09:06:10;;;;;;;7.45;2.90;;;;;;;14.38;25.43;95360.91;5000709;28;20034;-80
2022/04/12 09:08:35;;;;;;;7.43;2.70;;;;;;;14.11;25.62;95362.63;5002443;28;20040;-80
2022/04/12 09:11:05;;;;;;;5.10;2.58;;;;;;;13.88;26.24;95357.59;5016659;28;20113;-80
2022/04/12 09:13:31;;;;;;;4.20;3.15;;;;;;;13.79;27.12;95360.59;5017378;28;20038;-81
2022/04/12 09:15:56;;;;;;;7.45;3.08;;;;;;;13.82;26.86;95349.66;5018484;28;20118;-80
2022/04/12 09:18:36;;;;;;;6.80;2.70;;;;;;;13.96;27.07;95354.56;5022563;28;20059;-79
2022/04/12 09:21:14;;;;;;;4.57;2.83;;;;;;;14.06;26.63;95350.28;5002216;28;20036;-81
2022/04/12 09:23:44;;;;;;;3.20;2.78;;;;;;;14.07;25.92;95357.09;5017897;28;20041;-81
2022/04/12 09:26:15;;;;;;;2.97;2.63;;;;;;;14.10;26.18;95340.91;5018312;28;20030;-80
2022/04/12 09:28:41;;;;;;;4.55;2.95;;;;;;;14.24;27.51;95346.59;5017108;28;20030;-80
2022/04/12 09:31:16;;;;;;;5.90;3.03;;;;;;;14.31;27.39;95346.41;5001137;28;20065;-81
2022/04/12 09:33:43;;;;;;;5.25;3.10;;;;;;;14.36;27.04;95344.69;5016464;28;20041;-80
2022/04/12 09:36:08;;;;;;;5.95;3.00;;;;;;;14.39;27.54;95349.41;5001215;28;20042;-80
2022/04/12 09:38:38;;;;;;;5.22;2.65;;;;;;;14.49;27.36;95342.78;5017112;28;20026;-81
2022/04/12 09:41:22;;;;;;;3.10;2.65;;;;;;;14.51;26.38;95333.63;5000035;28;20101;-81
2022/04/12 09:44:08;;;;;;;3.05;2.75;;;;;;;14.47;26.81;95334.34;5000492;28;20038;-80
2022/04/12 09:46:34;;;;;;;7.20;2.75;;;;;;;14.53;27.12;95333.41;5016754;28;20084;-81
2022/04/12 09:49:00;;;;;;;2.95;2.35;;;;;;;14.45;26.33;95320.72;4998735;28;20103;-81
2022/04/12 09:51:25;;;;;;;3.45;2.03;;;;;;;14.39;26.03;95320.63;5018125;28;20038;-80
2022/04/12 09:53:51;;;;;;;3.85;2.22;;;;;;;14.27;26.77;95309.50;5017723;28;20042;-81
2022/04/12 09:56:25;;;;;;;4.07;2.25;;;;;;;14.28;27.20;95311.06;5024049;28;20180;-79
2022/04/12 09:58:53;;;;;;;3.90;2.40;;;;;;;14.38;27.29;95305.97;5035059;28;20022;-79
2022/04/12 10:01:19;;;;;;;8.48;2.22;;;;;;;14.47;27.06;95297.72;5034163;28;20034;-80
2022/04/12 10:03:55;;;;;;;9.73;2.88;;;;;;;14.50;27.09;95294.63;5030314;28;20026;-80
2022/04/12 10:06:23;;;;;;;12.75;2.83;;;;;;;14.54;26.81;95293.09;5001980;28;20049;-80
2022/04/12 10:08:57;;;;;;;4.28;2.40;;;;;;;14.45;26.48;95290.09;5002665;28;20025;-80
2022/04/12 10:11:22;;;;;;;3.50;2.40;;;;;;;14.47;26.36;95285.41;5018114;28;20040;-79
2022/04/12 10:13:48;;;;;;;3.90;2.20;;;;;;;14.49;27.22;95290.44;5018189;28;20101;-79
2022/04/12 10:16:18;;;;;;;3.88;2.50;;;;;;;14.49;26.36;95277.34;5001672;28;20029;-80
2022/04/12 10:18:44;;;;;;;7.10;1.98;;;;;;;14.56;26.15;95272.72;5000980;28;20462;-80
2022/04/12 10:21:11;;;;;;;3.10;2.40;;;;;;;14.53;26.39;95265.34;5016554;28;20387;-79
2022/04/12 10:23:37;;;;;;;5.38;2.70;;;;;;;14.56;27.14;95273.50;5001104;28;20030;-81
2022/04/12 10:26:03;;;;;;;5.78;2.58;;;;;;;14.57;26.14;95262.00;5001178;28;20122;-81
2022/04/12 10:28:29;;;;;;;2.95;2.17;;;;;;;14.16;26.70;95255.47;5002457;28;20037;-80
2022/04/12 10:31:13;;;;;;;2.58;2.17;;;;;;;13.85;27.00;95256.13;5001535;28;20049;-80
2022/04/12 10:33:38;;;;;;;4.53;2.40;;;;;;;13.82;28.08;95255.53;5017679;28;20030;-80
2022/04/12 10:36:06;;;;;;;2.33;2.10;;;;;;;13.90;28.26;95253.56;5016684;28;20041;-79
2022/04/12 10:38:41;;;;;;;2.05;1.88;;;;;;;13.97;27.58;95249.72;5000798;28;20056;-80
2022/04/12 10:41:26;;;;;;;2.33;1.98;;;;;;;14.09;26.91;95245.19;4999502;28;20034;-80
2022/04/12 10:43:58;;;;;;;10.55;2.58;;;;;;;14.11;27.54;95247.56;5001622;28;20076;-79
2022/04/12 10:46:23;;;;;;;6.82;2.17;;;;;;;14.17;27.76;95236.13;5017354;28;20089;-80
2022/04/12 10:48:55;;;;;;;3.22;2.20;;;;;;;14.15;27.03;95237.38;5017697;28;20128;-80
2022/04/12 10:51:57;;;;;;;7.18;1.80;;;;;;;14.20;27.03;95230.41;5017722;28;20038;-79
2022/04/12 10:54:33;;;;;;;3.58;2.00;;;;;;;14.25;27.31;95230.47;5004916;28;20065;-79
2022/04/12 10:57:24;;;;;;;3.95;2.10;;;;;;;14.31;27.85;95232.09;4992132;28;20081;-80
2022/04/12 11:00:13;;;;;;;3.40;2.22;;;;;;;14.22;26.85;95225.72;5022862;28;20046;-79
2022/04/12 11:02:39;;;;;;;4.82;2.80;;;;;;;14.30;28.31;95220.06;5022857;28;20034;-79
2022/04/12 11:05:06;;;;;;;6.57;2.65;;;;;;;14.38;27.68;95224.88;5018493;28;20057;-80
2022/04/12 11:07:37;;;;;;;3.60;2.00;;;;;;;14.22;26.83;95217.88;5020180;28;20045;-80
2022/04/12 11:10:21;;;;;;;2.95;2.70;;;;;;;14.20;26.64;95206.88;5002533;28;20034;-79
2022/04/12 11:12:47;;;;;;;3.45;2.45;;;;;;;14.31;27.63;95205.16;5017527;28;20060;-80
2022/04/12 11:15:27;;;;;;;4.10;2.00;;;;;;;14.39;26.70;95213.38;5023247;28;20038;-79
2022/04/12 11:18:14;;;;;;;1.83;1.73;;;;;;;14.14;25.76;95207.84;4996604;28;20037;-77
2022/04/12 11:20:45;;;;;;;2.42;1.98;;;;;;;14.08;25.33;95199.16;5021715;28;20034;-80
2022/04/12 11:23:14;;;;;;;6.00;2.35;;;;;;;14.12;26.01;95202.84;5003379;28;20037;-80
2022/04/12 11:25:51;;;;;;;2.78;2.03;;;;;;;14.18;25.25;95195.88;5000901;28;20057;-80
2022/04/12 11:28:24;;;;;;;8.20;1.90;;;;;;;14.20;24.44;95196.41;5018324;28;20033;-80
2022/04/12 11:31:07;;;;;;;7.75;1.70;;;;;;;14.08;24.66;95185.28;5011173;28;20062;-80
2022/04/12 11:33:32;;;;;;;6.22;2.10;;;;;;;14.09;24.77;95185.03;5002488;28;20099;-80